createdAt,value
2023-07-10T00:02:13.336Z,99.90
2023-07-10T00:04:41.418Z,99.90
2023-07-10T00:07:10.062Z,99.90
2023-07-10T00:09:38.160Z,99.90
2023-07-10T00:12:07.736Z,99.90
2023-07-10T00:14:36.101Z,99.90
2023-07-10T00:17:04.464Z,99.90
2023-07-10T00:19:34.053Z,99.90
2023-07-10T00:22:02.166Z,99.90
2023-07-10T00:24:30.240Z,99.90
2023-07-10T00:26:58.356Z,99.90
2023-07-10T00:29:32.762Z,99.90
2023-07-10T00:32:04.095Z,99.90
2023-07-10T00:34:33.614Z,99.90
2023-07-10T00:37:01.740Z,99.90
2023-07-10T00:39:32.057Z,99.90
2023-07-10T00:42:02.359Z,99.90
2023-07-10T00:44:34.660Z,99.90
2023-07-10T00:47:08.271Z,99.90
2023-07-10T00:49:44.198Z,99.90
2023-07-10T00:52:18.413Z,99.90
2023-07-10T00:54:49.427Z,99.90
2023-07-10T00:57:21.624Z,99.90
2023-07-10T00:59:51.740Z,99.90
2023-07-10T01:06:58.432Z,99.90
2023-07-10T01:09:26.879Z,99.90
2023-07-10T01:11:55.423Z,99.90
2023-07-10T01:14:24.521Z,99.90
2023-07-10T01:16:53.660Z,99.90
2023-07-10T01:19:26.467Z,99.90
2023-07-10T01:21:56.324Z,99.90
2023-07-10T01:24:24.466Z,99.90
2023-07-10T01:26:53.595Z,99.90
2023-07-10T01:29:25.530Z,99.90
2023-07-10T01:31:55.657Z,99.90
2023-07-10T01:34:29.055Z,99.90
2023-07-10T01:36:58.581Z,99.90
2023-07-10T01:39:37.038Z,99.90
2023-07-10T01:42:05.702Z,99.90
2023-07-10T01:44:36.693Z,99.90
2023-07-10T01:47:08.557Z,99.90
2023-07-10T01:49:39.777Z,99.90
2023-07-10T01:52:11.140Z,99.90
2023-07-10T01:54:39.932Z,99.90
2023-07-10T01:57:08.559Z,99.90
2023-07-10T01:59:36.658Z,99.90
2023-07-10T02:02:05.730Z,99.90
2023-07-10T02:04:34.255Z,99.90
2023-07-10T02:07:03.768Z,99.90
2023-07-10T02:09:33.968Z,99.90
2023-07-10T02:12:03.874Z,99.90
2023-07-10T02:14:32.003Z,99.90
2023-07-10T02:17:00.206Z,99.90
2023-07-10T02:19:28.713Z,99.90
2023-07-10T02:21:57.592Z,99.90
2023-07-10T02:24:27.556Z,99.90
2023-07-10T02:26:57.091Z,99.90
2023-07-10T02:29:25.276Z,99.90
2023-07-10T02:31:53.617Z,99.90
2023-07-10T02:34:22.190Z,99.90
2023-07-10T02:36:50.376Z,99.90
2023-07-10T02:39:18.480Z,99.90
2023-07-10T02:41:46.940Z,99.90
2023-07-10T02:44:16.397Z,99.90
2023-07-10T02:46:44.483Z,99.90
2023-07-10T02:49:13.074Z,99.90
2023-07-10T02:51:41.877Z,99.90
2023-07-10T02:54:11.451Z,99.90
2023-07-10T02:56:39.769Z,99.90
2023-07-10T02:59:07.917Z,99.90
2023-07-10T03:01:37.435Z,99.90
2023-07-10T03:04:06.507Z,99.90
2023-07-10T03:06:34.680Z,99.90
2023-07-10T03:09:04.259Z,99.90
2023-07-10T03:11:32.368Z,99.90
2023-07-10T03:14:02.544Z,99.90
2023-07-10T03:16:30.899Z,99.90
2023-07-10T03:19:00.807Z,99.90
2023-07-10T03:21:31.035Z,99.90
2023-07-10T03:23:59.965Z,99.90
2023-07-10T03:26:28.108Z,99.90
2023-07-10T03:29:09.703Z,99.90
2023-07-10T03:31:37.841Z,99.90
2023-07-10T03:34:07.582Z,99.90
2023-07-10T03:36:36.351Z,99.90
2023-07-10T03:39:04.839Z,99.90
2023-07-10T03:41:34.219Z,99.90
2023-07-10T03:44:02.628Z,99.90
2023-07-10T03:46:30.754Z,99.90
2023-07-10T03:48:58.869Z,99.90
2023-07-10T03:51:28.287Z,99.90
2023-07-10T03:53:56.425Z,99.90
2023-07-10T03:56:24.532Z,99.90
2023-07-10T03:58:52.732Z,99.90
2023-07-10T04:01:20.839Z,99.90
2023-07-10T04:03:49.031Z,99.90
2023-07-10T04:06:18.336Z,99.90
2023-07-10T04:08:49.103Z,99.90
2023-07-10T04:11:20.421Z,99.90
2023-07-10T04:13:49.504Z,99.90
2023-07-10T04:16:20.160Z,99.90
2023-07-10T04:18:49.446Z,99.90
2023-07-10T04:21:19.495Z,99.90
2023-07-10T04:23:49.601Z,99.90
2023-07-10T04:26:19.781Z,99.90
2023-07-10T04:28:48.926Z,99.90
2023-07-10T04:31:17.694Z,99.90
2023-07-10T04:33:46.126Z,99.90
2023-07-10T04:36:14.584Z,99.90
2023-07-10T04:38:42.709Z,99.90
2023-07-10T04:41:14.221Z,99.90
2023-07-10T04:43:42.569Z,99.90
2023-07-10T04:46:13.386Z,99.90
2023-07-10T04:48:44.040Z,99.90
2023-07-10T04:51:14.402Z,99.90
2023-07-10T04:53:42.738Z,99.90
2023-07-10T04:56:13.692Z,99.90
2023-07-10T04:58:53.687Z,99.90
2023-07-10T05:01:23.843Z,99.90
2023-07-10T05:03:52.235Z,99.90
2023-07-10T05:06:21.067Z,99.90
2023-07-10T05:08:49.789Z,99.90
2023-07-10T05:11:19.254Z,99.90
2023-07-10T05:13:47.397Z,99.90
2023-07-10T05:16:16.020Z,99.90
2023-07-10T05:18:44.167Z,99.90
2023-07-10T05:21:12.292Z,99.90
2023-07-10T05:23:40.473Z,99.90
2023-07-10T05:26:11.152Z,99.90
2023-07-10T05:28:40.995Z,99.90
2023-07-10T05:31:11.964Z,99.90
2023-07-10T05:33:41.022Z,99.90
2023-07-10T05:36:11.905Z,99.90
2023-07-10T05:38:40.771Z,99.90
2023-07-10T05:41:09.618Z,99.90
2023-07-10T05:43:39.744Z,99.90
2023-07-10T05:46:08.289Z,99.90
2023-07-10T05:48:36.865Z,99.90
2023-07-10T05:51:05.105Z,99.90
2023-07-10T05:53:35.112Z,99.90
2023-07-10T05:56:04.800Z,99.90
2023-07-10T05:58:35.226Z,99.90
2023-07-10T06:01:05.197Z,99.90
2023-07-10T06:03:35.392Z,99.90
2023-07-10T06:06:06.102Z,99.90
2023-07-10T06:08:36.181Z,99.90
2023-07-10T06:11:05.108Z,99.90
2023-07-10T06:13:33.974Z,99.90
2023-07-10T06:16:06.180Z,99.90
2023-07-10T06:18:35.880Z,99.90
2023-07-10T06:21:04.115Z,99.90
2023-07-10T06:23:32.648Z,99.90
2023-07-10T06:26:01.505Z,99.90
2023-07-10T06:28:31.905Z,99.90
2023-07-10T06:31:02.023Z,99.90
2023-07-10T06:33:31.724Z,99.90
2023-07-10T06:36:01.915Z,99.90
2023-07-10T06:38:30.440Z,99.90
2023-07-10T06:40:58.537Z,99.90
2023-07-10T06:43:26.687Z,99.90
2023-07-10T06:45:57.781Z,99.90
2023-07-10T06:48:26.409Z,99.90
2023-07-10T06:50:55.715Z,99.90
2023-07-10T06:53:28.249Z,99.90
2023-07-10T06:55:59.139Z,99.90
2023-07-10T06:58:28.144Z,99.90
2023-07-10T07:00:56.654Z,99.90
2023-07-10T07:03:25.776Z,99.90
2023-07-10T07:05:54.990Z,99.90
2023-07-10T07:08:25.971Z,99.90
2023-07-10T07:10:55.316Z,99.90
2023-07-10T07:13:23.566Z,99.90
2023-07-10T07:15:52.381Z,99.90
2023-07-10T07:18:21.314Z,99.90
2023-07-10T07:20:50.415Z,99.90
2023-07-10T07:23:18.872Z,99.90
2023-07-10T07:25:48.281Z,99.90
2023-07-10T07:28:16.462Z,99.90
2023-07-10T07:30:49.420Z,99.90
2023-07-10T07:33:19.487Z,99.90
2023-07-10T07:35:47.919Z,99.90
2023-07-10T07:38:16.438Z,99.90
2023-07-10T07:40:44.764Z,99.90
2023-07-10T07:43:14.255Z,99.90
2023-07-10T07:45:42.376Z,99.90
2023-07-10T07:48:11.586Z,99.90
2023-07-10T07:50:39.762Z,99.90
2023-07-10T07:53:07.882Z,99.90
2023-07-10T07:55:35.956Z,99.90
2023-07-10T07:58:04.101Z,99.90
2023-07-10T08:00:33.579Z,99.90
2023-07-10T08:03:01.765Z,99.90
2023-07-10T08:05:36.410Z,99.90
2023-07-10T08:08:06.013Z,99.90
2023-07-10T08:10:35.744Z,99.90
2023-07-10T08:13:05.872Z,99.90
2023-07-10T08:15:36.315Z,99.90
2023-07-10T08:18:04.856Z,99.90
2023-07-10T08:20:33.015Z,99.90
2023-07-10T08:23:02.743Z,99.90
2023-07-10T08:25:31.174Z,99.90
2023-07-10T08:28:00.160Z,99.90
2023-07-10T08:30:29.230Z,99.90
2023-07-10T08:32:58.772Z,99.90
2023-07-10T08:35:26.952Z,99.90
2023-07-10T08:37:55.108Z,99.90
2023-07-10T08:40:31.367Z,99.90
2023-07-10T08:43:03.547Z,99.90
2023-07-10T08:45:36.359Z,99.90
2023-07-10T08:48:24.398Z,99.90
2023-07-10T08:50:52.599Z,99.90
2023-07-10T08:53:26.747Z,99.90
2023-07-10T08:56:03.326Z,99.90
2023-07-10T08:58:35.259Z,99.90
2023-07-10T09:01:05.517Z,99.90
2023-07-10T09:03:41.723Z,99.90
2023-07-10T09:06:19.333Z,99.90
2023-07-10T09:08:49.760Z,99.90
2023-07-10T09:11:19.274Z,99.90
2023-07-10T09:13:54.200Z,99.90
2023-07-10T09:16:23.404Z,99.90
2023-07-10T09:18:55.790Z,99.90
2023-07-10T09:21:27.032Z,99.90
2023-07-10T09:23:56.373Z,99.90
2023-07-10T09:26:29.360Z,99.90
2023-07-10T09:29:06.749Z,99.90
2023-07-10T09:31:51.352Z,99.90
2023-07-10T09:34:24.941Z,99.90
2023-07-10T09:36:54.141Z,99.90
2023-07-10T09:39:22.992Z,99.90
2023-07-10T09:41:51.124Z,99.90
2023-07-10T09:44:21.242Z,99.90
2023-07-10T09:46:51.812Z,99.90
2023-07-10T09:49:23.896Z,99.90
2023-07-10T09:51:58.744Z,99.90
2023-07-10T09:54:35.714Z,99.90
2023-07-10T09:57:05.774Z,99.90
2023-07-10T09:59:34.320Z,99.90
2023-07-10T10:02:16.176Z,99.90
2023-07-10T10:04:45.912Z,99.90
2023-07-10T10:07:16.652Z,99.90
2023-07-10T10:09:44.765Z,99.90
2023-07-10T10:12:29.055Z,99.90
2023-07-10T10:15:01.819Z,99.90
2023-07-10T10:17:33.181Z,99.90
2023-07-10T10:20:10.154Z,99.90
2023-07-10T10:22:38.295Z,99.90
2023-07-10T10:25:14.736Z,99.90
2023-07-10T10:27:51.640Z,99.90
2023-07-10T10:30:27.624Z,99.90
2023-07-10T10:33:06.481Z,99.90
2023-07-10T10:35:50.805Z,99.90
2023-07-10T10:38:31.502Z,99.90
2023-07-10T10:41:13.131Z,99.90
2023-07-10T10:43:49.691Z,99.90
2023-07-10T10:46:35.767Z,99.90
2023-07-10T10:49:22.238Z,99.90
2023-07-10T10:52:01.971Z,99.90
2023-07-10T10:54:37.086Z,99.90
2023-07-10T10:57:22.483Z,99.90
2023-07-10T11:00:06.236Z,99.90
2023-07-10T11:02:49.774Z,99.90
2023-07-10T11:05:22.842Z,99.90
2023-07-10T11:07:58.729Z,99.90
2023-07-10T11:10:33.839Z,99.90
2023-07-10T11:13:02.240Z,99.90
2023-07-10T11:15:35.587Z,99.90
2023-07-10T11:18:04.165Z,99.90
2023-07-10T11:20:32.388Z,99.90
2023-07-10T11:23:03.538Z,99.90
2023-07-10T11:25:34.460Z,99.90
2023-07-10T11:28:19.949Z,99.90
2023-07-10T11:31:08.184Z,99.90
2023-07-10T11:33:36.257Z,99.90
2023-07-10T11:36:17.559Z,99.90
2023-07-10T11:39:11.096Z,99.90
2023-07-10T11:41:40.823Z,99.90
2023-07-10T11:44:21.463Z,99.90
2023-07-10T11:47:06.104Z,99.90
2023-07-10T11:49:47.785Z,99.90
2023-07-10T11:52:32.305Z,99.90
2023-07-10T11:55:12.402Z,99.90
2023-07-10T11:57:40.597Z,99.90
2023-07-10T12:00:26.636Z,99.90
2023-07-10T12:02:57.831Z,99.90
2023-07-10T12:05:28.137Z,99.90
2023-07-10T12:08:05.535Z,99.90
2023-07-10T12:10:40.222Z,99.90
2023-07-10T12:13:18.969Z,99.90
2023-07-10T12:15:48.429Z,99.90
2023-07-10T12:18:20.479Z,99.90
2023-07-10T12:20:51.869Z,99.90
2023-07-10T12:23:20.221Z,99.90
2023-07-10T12:25:51.477Z,99.90
2023-07-10T12:28:27.126Z,99.90
2023-07-10T12:30:59.774Z,99.90
2023-07-10T12:33:41.248Z,99.80
2023-07-10T12:36:21.862Z,99.70
2023-07-10T12:38:51.195Z,99.80
2023-07-10T12:41:21.768Z,99.90
2023-07-10T12:43:52.931Z,99.70
2023-07-10T12:46:25.738Z,99.60
2023-07-10T12:48:59.046Z,99.50
2023-07-10T12:51:31.260Z,99.60
2023-07-10T12:54:02.847Z,99.50
2023-07-10T12:56:35.473Z,99.30
2023-07-10T12:59:15.489Z,99.40
2023-07-10T13:01:51.783Z,99.40
2023-07-10T13:04:24.686Z,99.30
2023-07-10T13:07:16.673Z,99.10
2023-07-10T13:09:56.363Z,99.20
2023-07-10T13:12:29.826Z,99.20
2023-07-10T13:15:00.334Z,99.10
2023-07-10T13:17:31.443Z,98.90
2023-07-10T13:20:09.059Z,99.00
2023-07-10T13:22:39.724Z,99.00
2023-07-10T13:25:08.838Z,99.00
2023-07-10T13:27:38.299Z,99.00
2023-07-10T13:30:16.158Z,98.70
2023-07-10T13:32:44.443Z,98.80
2023-07-10T13:35:12.923Z,98.90
2023-07-10T13:37:41.633Z,98.90
2023-07-10T13:40:14.571Z,98.90
2023-07-10T13:42:44.049Z,99.20
2023-07-10T13:45:12.348Z,98.50
2023-07-10T13:47:40.508Z,97.10
2023-07-10T13:50:15.384Z,96.50
2023-07-10T13:52:43.643Z,96.00
2023-07-10T13:55:14.764Z,95.60
2023-07-10T13:57:45.641Z,94.80
2023-07-10T14:00:16.163Z,95.90
2023-07-10T14:02:48.343Z,95.40
2023-07-10T14:05:19.989Z,95.00
2023-07-10T14:07:48.781Z,94.90
2023-07-10T14:10:18.240Z,95.80
2023-07-10T14:12:47.859Z,95.40
2023-07-10T14:15:17.299Z,94.70
2023-07-10T14:17:46.110Z,94.50
2023-07-10T14:20:19.840Z,94.80
2023-07-10T14:22:47.978Z,95.10
2023-07-10T14:25:18.996Z,95.30
2023-07-10T14:27:48.740Z,95.70
2023-07-10T14:30:21.153Z,95.90
2023-07-10T14:32:49.633Z,95.90
2023-07-10T14:35:20.272Z,96.10
2023-07-10T14:37:50.073Z,96.20
2023-07-10T14:40:18.692Z,96.20
2023-07-10T14:42:48.490Z,96.20
2023-07-10T14:45:17.502Z,96.20
2023-07-10T14:47:46.969Z,96.10
2023-07-10T14:50:15.695Z,96.40
2023-07-10T14:52:45.462Z,96.30
2023-07-10T14:55:17.534Z,96.20
2023-07-10T14:57:45.983Z,96.50
2023-07-10T15:00:21.932Z,96.80
2023-07-10T15:02:50.314Z,96.60
2023-07-10T15:05:18.891Z,96.50
2023-07-10T15:07:47.088Z,96.70
2023-07-10T15:10:25.989Z,96.60
2023-07-10T15:13:01.292Z,96.60
2023-07-10T15:15:34.255Z,96.60
2023-07-10T15:18:03.485Z,96.80
2023-07-10T15:20:31.744Z,96.80
2023-07-10T15:22:59.847Z,96.90
2023-07-10T15:25:30.002Z,96.80
2023-07-10T15:27:58.256Z,96.70
2023-07-10T15:30:29.268Z,96.90
2023-07-10T15:32:58.880Z,96.80
2023-07-10T15:35:27.244Z,96.90
2023-07-10T15:37:56.071Z,96.80
2023-07-10T15:40:26.145Z,96.70
2023-07-10T15:42:56.715Z,96.90
2023-07-10T15:45:29.325Z,96.80
2023-07-10T15:48:01.781Z,96.90
2023-07-10T15:50:31.424Z,96.80
2023-07-10T15:52:59.528Z,96.90
2023-07-10T15:55:29.788Z,97.00
2023-07-10T15:57:58.770Z,96.80
2023-07-10T16:00:36.776Z,96.80
2023-07-10T16:03:16.360Z,96.90
2023-07-10T16:05:44.769Z,96.90
2023-07-10T16:08:16.468Z,96.80
2023-07-10T16:10:46.580Z,97.10
2023-07-10T16:13:19.004Z,96.90
2023-07-10T16:15:47.545Z,96.90
2023-07-10T16:18:24.202Z,96.90
2023-07-10T16:20:53.112Z,96.50
2023-07-10T16:23:26.897Z,96.60
2023-07-10T16:25:55.317Z,96.80
2023-07-10T16:28:25.612Z,96.70
2023-07-10T16:30:54.402Z,96.70
2023-07-10T16:33:25.973Z,96.80
2023-07-10T16:35:55.388Z,96.70
2023-07-10T16:38:25.447Z,96.70
2023-07-10T16:40:55.922Z,96.70
2023-07-10T16:43:31.861Z,96.80
2023-07-10T16:46:00.243Z,96.80
2023-07-10T16:48:30.998Z,96.80
2023-07-10T16:51:01.848Z,96.80
2023-07-10T16:53:31.620Z,96.80
2023-07-10T16:56:02.721Z,96.80
2023-07-10T16:58:33.258Z,96.80
2023-07-10T17:01:01.926Z,96.90
2023-07-10T17:03:34.768Z,96.90
2023-07-10T17:06:03.118Z,96.90
2023-07-10T17:08:31.438Z,97.20
2023-07-10T17:11:00.743Z,97.00
2023-07-10T17:13:33.535Z,97.00
2023-07-10T17:16:02.483Z,97.00
2023-07-10T17:18:32.843Z,97.00
2023-07-10T17:21:04.669Z,97.00
2023-07-10T17:23:34.890Z,97.00
2023-07-10T17:26:03.436Z,97.10
2023-07-10T17:28:35.276Z,97.10
2023-07-10T17:31:09.433Z,97.10
2023-07-10T17:33:44.419Z,97.10
2023-07-10T17:36:14.420Z,97.20
2023-07-10T17:38:43.390Z,97.10
2023-07-10T17:41:18.474Z,97.10
2023-07-10T17:43:47.837Z,97.10
2023-07-10T17:46:15.962Z,97.10
2023-07-10T17:48:45.505Z,97.00
2023-07-10T17:51:25.199Z,97.00
2023-07-10T17:53:53.544Z,97.00
2023-07-10T17:56:21.734Z,97.00
2023-07-10T17:58:49.848Z,97.00
2023-07-10T18:01:20.205Z,97.00
2023-07-10T18:03:50.102Z,97.00
2023-07-10T18:06:18.479Z,97.10
2023-07-10T18:08:46.612Z,97.10
2023-07-10T18:11:17.739Z,97.10
2023-07-10T18:13:48.169Z,97.10
2023-07-10T18:16:17.647Z,97.10
2023-07-10T18:18:45.945Z,97.10
2023-07-10T18:21:22.458Z,97.10
2023-07-10T18:23:51.542Z,97.10
2023-07-10T18:26:21.574Z,97.00
2023-07-10T18:28:51.243Z,97.10
2023-07-10T18:31:23.580Z,97.00
2023-07-10T18:33:52.516Z,97.10
2023-07-10T18:36:22.332Z,97.10
2023-07-10T18:38:50.489Z,97.00
2023-07-10T18:41:22.572Z,97.00
2023-07-10T18:43:53.631Z,96.90
2023-07-10T18:46:22.982Z,97.00
2023-07-10T18:48:51.928Z,96.80
2023-07-10T18:51:24.711Z,96.90
2023-07-10T18:53:53.905Z,96.80
2023-07-10T18:56:22.485Z,96.90
2023-07-10T18:58:50.851Z,96.70
2023-07-10T19:01:21.154Z,96.70
2023-07-10T19:03:49.705Z,96.70
2023-07-10T19:06:22.930Z,96.60
2023-07-10T19:08:51.701Z,96.60
2023-07-10T19:11:20.687Z,96.50
2023-07-10T19:13:49.760Z,96.30
2023-07-10T19:16:23.129Z,96.30
2023-07-10T19:18:55.973Z,96.30
2023-07-10T19:21:26.143Z,96.20
2023-07-10T19:23:54.297Z,96.20
2023-07-10T19:26:23.069Z,96.20
2023-07-10T19:28:51.951Z,96.10
2023-07-10T19:31:23.716Z,96.10
2023-07-10T19:33:52.597Z,96.00
2023-07-10T19:36:25.805Z,96.00
2023-07-10T19:38:54.666Z,95.90
2023-07-10T19:41:23.734Z,95.90
2023-07-10T19:43:51.946Z,95.90
2023-07-10T19:46:23.892Z,95.90
2023-07-10T19:48:52.367Z,95.90
2023-07-10T19:51:20.434Z,95.80
2023-07-10T19:53:50.632Z,95.70
2023-07-10T19:56:20.674Z,95.70
2023-07-10T19:58:51.338Z,95.80
2023-07-10T20:01:21.387Z,95.60
2023-07-10T20:03:50.733Z,95.60
2023-07-10T20:06:27.762Z,95.60
2023-07-10T20:08:57.585Z,95.60
2023-07-10T20:11:26.137Z,95.60
2023-07-10T20:13:54.424Z,95.50
2023-07-10T20:16:26.660Z,95.50
2023-07-10T20:18:55.432Z,95.50
2023-07-10T20:21:24.603Z,95.50
2023-07-10T20:23:53.984Z,95.50
2023-07-10T20:26:24.732Z,95.50
2023-07-10T20:28:53.577Z,95.50
2023-07-10T20:31:22.183Z,95.40
2023-07-10T20:33:50.966Z,95.40
2023-07-10T20:36:21.925Z,95.30
2023-07-10T20:38:51.569Z,95.30
2023-07-10T20:41:22.223Z,95.20
2023-07-10T20:43:51.747Z,95.20
2023-07-10T20:46:21.937Z,95.20
2023-07-10T20:48:51.166Z,95.20
2023-07-10T20:51:21.343Z,95.10
2023-07-10T20:53:51.593Z,95.10
2023-07-10T20:56:25.471Z,95.10
2023-07-10T20:58:57.045Z,95.00
2023-07-10T21:01:28.216Z,94.90
2023-07-10T21:03:57.904Z,94.90
2023-07-10T21:06:29.732Z,95.00
2023-07-10T21:09:00.124Z,95.00
2023-07-10T21:11:30.729Z,94.90
2023-07-10T21:14:00.934Z,94.90
2023-07-10T21:16:32.397Z,95.00
2023-07-10T21:19:05.749Z,95.00
2023-07-10T21:21:33.852Z,94.70
2023-07-10T21:24:01.920Z,94.80
2023-07-10T21:26:33.025Z,94.80
2023-07-10T21:29:02.706Z,94.80
2023-07-10T21:31:31.153Z,94.70
2023-07-10T21:34:00.498Z,94.70
2023-07-10T21:36:28.564Z,94.60
2023-07-10T21:38:56.674Z,94.50
2023-07-10T21:41:28.175Z,94.30
2023-07-10T21:43:58.159Z,94.20
2023-07-10T21:46:29.775Z,94.30
2023-07-10T21:48:58.925Z,94.40
2023-07-10T21:51:28.276Z,94.50
2023-07-10T21:53:56.474Z,94.30
2023-07-10T21:56:26.985Z,94.40
2023-07-10T21:58:57.201Z,94.40
2023-07-10T22:01:29.640Z,94.30
2023-07-10T22:04:00.840Z,94.30
2023-07-10T22:06:30.278Z,94.30
2023-07-10T22:08:58.546Z,94.30
2023-07-10T22:11:30.934Z,94.20
2023-07-10T22:14:00.154Z,94.10
2023-07-10T22:16:32.050Z,94.10
2023-07-10T22:19:03.105Z,94.00
2023-07-10T22:21:34.106Z,94.00
2023-07-10T22:24:03.347Z,94.00
2023-07-10T22:26:32.042Z,93.90
2023-07-10T22:29:00.177Z,93.90
2023-07-10T22:31:30.914Z,93.90
2023-07-10T22:33:59.222Z,94.00
2023-07-10T22:36:27.353Z,93.90
2023-07-10T22:38:55.572Z,93.80
2023-07-10T22:41:28.224Z,93.80
2023-07-10T22:43:58.771Z,93.80
2023-07-10T22:46:30.228Z,93.80
2023-07-10T22:48:59.703Z,93.90
2023-07-10T22:51:31.490Z,94.00
2023-07-10T22:54:00.910Z,94.00
2023-07-10T22:56:31.392Z,94.00
2023-07-10T22:59:00.276Z,93.90
2023-07-10T23:01:29.972Z,94.00
2023-07-10T23:03:58.298Z,94.00
2023-07-10T23:06:32.331Z,94.00
2023-07-10T23:09:00.788Z,94.30
2023-07-10T23:11:29.305Z,93.90
2023-07-10T23:13:57.540Z,94.00
2023-07-10T23:16:26.029Z,94.00
2023-07-10T23:18:57.631Z,94.10
2023-07-10T23:21:26.972Z,94.10
2023-07-10T23:23:55.178Z,94.00
2023-07-10T23:26:25.335Z,94.10
2023-07-10T23:28:54.514Z,94.00
2023-07-10T23:31:25.127Z,94.00
2023-07-10T23:33:55.352Z,94.00
2023-07-10T23:36:25.939Z,94.00
2023-07-10T23:38:56.144Z,93.90
2023-07-10T23:41:24.294Z,93.80
2023-07-10T23:43:52.521Z,93.70
2023-07-10T23:46:20.689Z,93.70
2023-07-10T23:48:48.873Z,93.70
2023-07-10T23:51:18.334Z,93.70
2023-07-10T23:53:46.457Z,93.80
2023-07-10T23:56:14.562Z,93.80
2023-07-10T23:58:42.682Z,93.70
